DK-0005 weather

Bogense Flyveplads
Bogense, South Denmark, Denmark

Public forecast

Using degrees Celsius for public forecast. Weather courtesy of forecast.io.

METAR (pilot weather report)

Closest report is Odense Airport, 10.9 nm (20.2 km) ESE. Retrieved 2019/07/19 07:50 UTC (11 minutes ago):

EKOD 190750Z 24004KT 210V270 CAVOK 20/16 Q1011

TAF (pilot weather forecast)

Closest forecast is Billund Airport, 32.1 nm (59.5 km) WNW. Retrieved 2019/07/19 06:31 UTC (2 hours ago):

TAF EKBI 190519Z 1906/2006 13005KT 9999 BKN020 TEMPO 1906/1909 2500 -RADZ BR BKN006 TEMPO 1909/1913 BKN010